Lubbock/Reese AFB, Texas
Current Conditions -  °F | °C
As of 6:53 AM on Tuesday 21 Oct 2014 (Local Time) from KLBB Reporting Station
Scattered Clouds Scattered Clouds  
Wind Chill: 50°   Ceiling: Unl
Heat Index: 50°   Visibility: 10mi
Dew Point: 47°   Wind: 3mph
Humidity: 89%   Direction: 330°NNW
Pressure: 30.12"   Gusts: NA
Location:  33.6°N, 102.07°W
Report Text: KLBB 211153Z 33003KT 10SM SCT060 SCT200 10/08 A3012 RMK AO2 SLP169 T01000083 10156 20100 53006
Loading
Personal Weather Stations






























Interactive Weather Map
Tropical Storm Tracking
New forecast layout! Learn more

10-Day Weather Forecast

Advertisements
Track Severe Weather on mobile